3N6 weather

Old Bridge Airport
Old Bridge, New Jersey, United States

Public forecast

Using degrees Fahrenheit for public forecast. Weather courtesy of forecast.io.

Closest aviation weather report (METAR) to Old Bridge Airport

Closest report is Monmouth Executive Airport, 13.3 nm (24.6 km) SE. Retrieved 2020/07/03 19:56 UTC (25 minutes ago):

KBLM 031956Z AUTO 15006KT 10SM FEW065 31/21 A2983 RMK AO2 SLP101 T03110206

Closest aviation forecast (TAF) to Old Bridge Airport

Closest forecast is Trenton Mercer Airport, 21.6 nm (40.0 km) W. Retrieved 2020/07/03 18:30 UTC (2 hours ago):

TAF KTTN 031729Z 0318/0418 33010KT P6SM BKN120 FM032200 31006KT P6SM VCTS BKN040CB FM040300 VRB03KT P6SM SCT025 FM040600 04004KT P6SM BKN025 FM041500 04007KT P6SM SCT200